PILOTS ONLINE: 410    ATC ONLINE: 92

KCWA

Central Wisconsin Airport

Location

IATA CWA
City Mosinee
Country  United States
Latitude 44° 46' 39" N
Longitude 89° 40' 0" W
Elevation 1277 ft
Type Medium Airport

Map

Weather

METAR
2014/10/24 23:45
KCWA 242345Z 18005KT 10SM OVC024 12/11 A2989
TAF
2014/10/24 22:09
TAF 
      AMD KCWA 242207Z 2422/2518 18005KT P6SM SCT025 OVC040 
     FM242300 21005KT 6SM BR OVC025 
      TEMPO 2501/2504 4SM BR OVC015 
     FM250400 26006KT 2SM BR BKN006 OVC012 
     FM251000 29011KT P6SM SCT015

Runways

08/26 7645 ft / 150 ft
17/35 6501 ft / 150 ft

Outbound flights

Callsign Flying to Pilot ATD/STD ETA Aircraft

Inbound flights

Callsign Flying from Pilot ATD ETA Aircraft